createdAt,value
2022-08-14T00:00:59.249Z,97786.41
2022-08-14T00:03:02.439Z,97787.75
2022-08-14T00:05:10.124Z,97787.09
2022-08-14T00:07:14.813Z,97782.28
2022-08-14T00:09:18.448Z,97780.13
2022-08-14T00:11:23.238Z,97778.69
2022-08-14T00:13:29.083Z,97779.00
2022-08-14T00:15:43.332Z,97766.13
2022-08-14T00:17:52.977Z,97767.44
2022-08-14T00:19:56.749Z,97771.41
2022-08-14T00:22:01.169Z,97771.72
2022-08-14T00:24:04.900Z,97757.84
2022-08-14T00:26:08.439Z,97759.50
2022-08-14T00:28:29.056Z,97760.84
2022-08-14T00:30:35.732Z,97748.91
2022-08-14T00:32:52.688Z,97742.97
2022-08-14T00:35:01.457Z,97740.19
2022-08-14T00:37:06.622Z,97731.78
2022-08-14T00:39:14.233Z,97729.47
2022-08-14T00:41:17.709Z,97726.47
2022-08-14T00:43:21.110Z,97729.44
2022-08-14T00:45:24.697Z,97723.34
2022-08-14T00:47:27.893Z,97720.88
2022-08-14T00:49:38.086Z,97722.84
2022-08-14T00:51:46.397Z,97711.75
2022-08-14T00:53:53.835Z,97715.59
2022-08-14T00:55:57.684Z,97708.97
2022-08-14T00:58:18.875Z,97701.53
2022-08-14T01:00:37.125Z,97706.19
2022-08-14T01:02:47.088Z,97692.47
2022-08-14T01:05:00.798Z,97702.66
2022-08-14T01:07:08.141Z,97700.69
2022-08-14T01:09:14.234Z,97702.34
2022-08-14T01:11:19.083Z,97705.16
2022-08-14T01:13:25.110Z,97703.66
2022-08-14T01:15:57.458Z,97705.50
2022-08-14T01:18:20.149Z,97706.31
2022-08-14T01:20:42.679Z,97701.03
2022-08-14T01:22:50.204Z,97698.53
2022-08-14T01:24:53.667Z,97698.38
2022-08-14T01:26:57.779Z,97700.03
2022-08-14T01:29:06.048Z,97700.19
2022-08-14T01:31:12.608Z,97697.56
2022-08-14T01:33:17.996Z,97704.16
2022-08-14T01:36:03.461Z,97713.56
2022-08-14T01:37:56.061Z,97701.34
2022-08-14T01:40:03.013Z,97701.34
2022-08-14T01:42:07.174Z,97704.31
2022-08-14T01:44:32.826Z,97704.16
2022-08-14T01:46:40.088Z,97696.03
2022-08-14T01:48:44.338Z,97695.38
2022-08-14T01:50:47.711Z,97694.03
2022-08-14T01:52:58.414Z,97693.41
2022-08-14T01:55:06.752Z,97686.59
2022-08-14T01:57:11.573Z,97686.94
2022-08-14T01:59:21.848Z,97684.28
2022-08-14T02:01:26.674Z,97683.47
2022-08-14T02:03:34.502Z,97685.97
2022-08-14T02:05:39.108Z,97688.59
2022-08-14T02:07:53.704Z,97683.47
2022-08-14T02:09:59.974Z,97683.81
2022-08-14T02:12:06.723Z,97675.06
2022-08-14T02:14:14.255Z,97663.97
2022-08-14T02:16:22.455Z,97667.47
2022-08-14T02:18:28.104Z,97658.84
2022-08-14T02:20:36.222Z,97652.75
2022-08-14T02:22:47.418Z,97647.81
2022-08-14T02:24:52.313Z,97642.19
2022-08-14T02:28:20.240Z,97640.84
2022-08-14T02:29:24.404Z,97646.13
2022-08-14T02:31:50.208Z,97648.78
2022-08-14T02:33:55.061Z,97648.78
2022-08-14T02:36:05.018Z,97655.06
2022-08-14T02:38:30.014Z,97650.09
2022-08-14T02:40:37.973Z,97661.16
2022-08-14T02:42:41.678Z,97659.94
2022-08-14T02:45:00.436Z,97662.25
2022-08-14T02:47:14.672Z,97651.31
2022-08-14T02:49:21.638Z,97643.56
2022-08-14T02:51:30.703Z,97640.44
2022-08-14T02:53:35.078Z,97643.06
2022-08-14T02:55:41.295Z,97643.38
2022-08-14T02:57:45.038Z,97645.38
2022-08-14T02:59:57.449Z,97633.16
2022-08-14T03:02:03.110Z,97631.69
2022-08-14T03:04:09.919Z,97623.06
2022-08-14T03:06:20.615Z,97629.53
2022-08-14T03:08:39.620Z,97622.09
2022-08-14T03:10:50.322Z,97617.94
2022-08-14T03:12:53.539Z,97620.56
2022-08-14T03:14:56.951Z,97609.47
2022-08-14T03:17:00.073Z,97605.28
2022-08-14T03:19:07.138Z,97610.06
2022-08-14T03:21:13.309Z,97617.81
2022-08-14T03:23:16.777Z,97616.84
2022-08-14T03:25:21.768Z,97608.63
2022-08-14T03:27:35.199Z,97614.56
2022-08-14T03:29:50.142Z,97609.13
2022-08-14T03:31:53.278Z,97611.91
2022-08-14T03:33:56.937Z,97611.56
2022-08-14T03:37:38.575Z,97602.94
2022-08-14T03:39:11.904Z,97606.53
2022-08-14T03:40:54.740Z,97596.41
2022-08-14T03:42:58.961Z,97596.72
2022-08-14T03:45:25.121Z,97592.63
2022-08-14T03:47:34.237Z,97599.53
2022-08-14T03:49:50.021Z,97590.66
2022-08-14T03:51:54.821Z,97583.72
2022-08-14T03:53:59.565Z,97585.38
2022-08-14T03:56:02.598Z,97589.63
2022-08-14T03:58:06.873Z,97588.81
2022-08-14T04:00:27.616Z,97587.00
2022-08-14T04:02:37.420Z,97586.50
2022-08-14T04:04:50.377Z,97586.66
2022-08-14T04:06:54.799Z,97584.34
2022-08-14T04:09:01.812Z,97581.84
2022-08-14T04:11:07.779Z,97586.63
2022-08-14T04:13:16.476Z,97585.97
2022-08-14T04:15:21.169Z,97581.66
2022-08-14T04:17:29.413Z,97579.19
2022-08-14T04:19:36.359Z,97574.06
2022-08-14T04:22:03.435Z,97585.28
2022-08-14T04:24:06.070Z,97568.97
2022-08-14T04:26:14.413Z,97577.69
2022-08-14T04:29:07.128Z,97577.53
2022-08-14T04:30:42.289Z,97581.00
2022-08-14T04:33:02.249Z,97572.41
2022-08-14T04:35:10.546Z,97589.88
2022-08-14T04:37:31.678Z,97590.69
2022-08-14T04:39:56.596Z,97595.31
2022-08-14T04:42:18.011Z,97584.91
2022-08-14T04:44:36.116Z,97576.19
2022-08-14T04:46:54.786Z,97572.72
2022-08-14T04:49:00.359Z,97566.13
2022-08-14T04:51:05.841Z,97571.41
2022-08-14T04:53:11.023Z,97572.22
2022-08-14T04:55:15.525Z,97577.50
2022-08-14T04:57:19.259Z,97579.16
2022-08-14T04:59:23.645Z,97580.78
2022-08-14T05:01:27.650Z,97581.97
2022-08-14T05:03:33.578Z,97578.56
2022-08-14T05:05:36.794Z,97588.31
2022-08-14T05:07:53.939Z,97583.13
2022-08-14T05:09:57.949Z,97587.13
2022-08-14T05:13:11.149Z,97584.50
2022-08-14T05:14:45.946Z,97579.13
2022-08-14T05:16:49.930Z,97584.28
2022-08-14T05:19:17.907Z,97590.38
2022-08-14T05:22:00.075Z,97591.91
2022-08-14T05:23:41.787Z,97582.84
2022-08-14T05:25:47.403Z,97580.75
2022-08-14T05:27:53.821Z,97592.69
2022-08-14T05:29:58.075Z,97587.75
2022-08-14T05:32:06.335Z,97594.66
2022-08-14T05:34:10.642Z,97592.00
2022-08-14T05:36:16.764Z,97594.44
2022-08-14T05:38:22.276Z,97597.53
2022-08-14T05:40:35.243Z,97593.78
2022-08-14T05:42:38.937Z,97597.13
2022-08-14T05:44:46.090Z,97602.16
2022-08-14T05:46:49.242Z,97612.25
2022-08-14T05:48:54.259Z,97612.06
2022-08-14T05:50:57.406Z,97621.47
2022-08-14T05:53:01.957Z,97621.09
2022-08-14T05:55:05.664Z,97615.72
2022-08-14T05:57:08.717Z,97618.19
2022-08-14T05:59:14.011Z,97613.63
2022-08-14T06:01:21.483Z,97609.78
2022-08-14T06:03:26.751Z,97599.84
2022-08-14T06:05:30.391Z,97603.09
2022-08-14T06:07:36.764Z,97602.69
2022-08-14T06:09:40.633Z,97602.66
2022-08-14T06:11:43.970Z,97603.50
2022-08-14T06:13:52.970Z,97596.16
2022-08-14T06:15:57.447Z,97595.88
2022-08-14T06:18:02.650Z,97596.81
2022-08-14T06:20:06.886Z,97595.84
2022-08-14T06:22:13.461Z,97609.09
2022-08-14T06:24:20.649Z,97601.84
2022-08-14T06:26:30.258Z,97604.41
2022-08-14T06:28:33.952Z,97593.81
2022-08-14T06:30:45.975Z,97592.44
2022-08-14T06:32:52.484Z,97600.91
2022-08-14T06:35:04.692Z,97588.19
2022-08-14T06:37:18.683Z,97598.66
2022-08-14T06:39:36.517Z,97588.63
2022-08-14T06:41:58.650Z,97581.59
2022-08-14T06:44:02.826Z,97581.34
2022-08-14T06:46:06.308Z,97580.19
2022-08-14T06:48:23.711Z,97570.81
2022-08-14T06:50:30.269Z,97561.91
2022-08-14T06:52:33.586Z,97556.66
2022-08-14T06:54:36.716Z,97549.91
2022-08-14T06:56:40.286Z,97555.72
2022-08-14T06:58:47.561Z,97557.59
2022-08-14T07:01:08.151Z,97551.75
2022-08-14T07:03:29.091Z,97529.47
2022-08-14T07:05:55.529Z,97524.22
2022-08-14T07:08:01.069Z,97525.56
2022-08-14T07:10:05.050Z,97525.78
2022-08-14T07:12:08.935Z,97528.47
2022-08-14T07:14:31.946Z,97525.50
2022-08-14T07:16:35.278Z,97539.94
2022-08-14T07:18:40.768Z,97532.78
2022-08-14T07:20:45.570Z,97531.25
2022-08-14T07:22:56.424Z,97522.06
2022-08-14T07:25:00.264Z,97519.97
2022-08-14T07:27:03.384Z,97518.13
2022-08-14T07:29:06.446Z,97514.03
2022-08-14T07:31:11.513Z,97509.16
2022-08-14T07:33:14.715Z,97506.44
2022-08-14T07:35:18.104Z,97517.44
2022-08-14T07:37:22.538Z,97518.75
2022-08-14T07:39:27.523Z,97527.06
2022-08-14T07:41:33.538Z,97528.06
2022-08-14T07:43:37.770Z,97529.50
2022-08-14T07:45:42.335Z,97528.56
2022-08-14T07:47:45.529Z,97519.59
2022-08-14T07:49:56.124Z,97528.59
2022-08-14T07:51:59.966Z,97526.94
2022-08-14T07:54:11.002Z,97529.59
2022-08-14T07:56:44.114Z,97527.25
2022-08-14T07:58:38.848Z,97532.94
2022-08-14T08:00:56.550Z,97528.09
2022-08-14T08:03:00.621Z,97526.28
2022-08-14T08:05:04.001Z,97521.44
2022-08-14T08:07:07.831Z,97520.81
2022-08-14T08:09:13.235Z,97517.22
2022-08-14T08:11:19.456Z,97526.72
2022-08-14T08:13:24.432Z,97523.22
2022-08-14T08:15:29.195Z,97528.84
2022-08-14T08:17:34.805Z,97529.50
2022-08-14T08:19:41.508Z,97535.88
2022-08-14T08:21:47.631Z,97528.84
2022-08-14T08:23:51.620Z,97535.50
2022-08-14T08:25:58.516Z,97532.22
2022-08-14T08:28:08.196Z,97528.44
2022-08-14T08:30:13.050Z,97530.56
2022-08-14T08:32:16.147Z,97525.03
2022-08-14T08:34:19.782Z,97525.09
2022-08-14T08:36:29.950Z,97519.50
2022-08-14T08:39:17.840Z,97517.78
2022-08-14T08:41:00.069Z,97517.44
2022-08-14T08:43:04.132Z,97511.50
2022-08-14T08:45:12.142Z,97506.66
2022-08-14T08:47:15.417Z,97507.03
2022-08-14T08:49:19.321Z,97513.41
2022-08-14T08:51:33.599Z,97504.31
2022-08-14T08:53:38.025Z,97499.50
2022-08-14T08:55:46.507Z,97497.94
2022-08-14T08:57:55.262Z,97505.13
2022-08-14T08:59:58.741Z,97503.81
2022-08-14T09:02:05.324Z,97499.25
2022-08-14T09:04:14.724Z,97497.34
2022-08-14T09:06:59.931Z,97486.53
2022-08-14T09:08:46.265Z,97491.56
2022-08-14T09:10:52.447Z,97475.22
2022-08-14T09:13:01.005Z,97474.66
2022-08-14T09:15:11.455Z,97470.00
2022-08-14T09:17:15.551Z,97475.16
2022-08-14T09:19:19.065Z,97469.72
2022-08-14T09:21:31.424Z,97464.66
2022-08-14T09:24:26.158Z,97455.22
2022-08-14T09:26:00.042Z,97450.91
2022-08-14T09:28:06.800Z,97447.38
2022-08-14T09:30:30.662Z,97450.09
2022-08-14T09:32:58.688Z,97450.81
2022-08-14T09:35:08.481Z,97447.81
2022-08-14T09:37:22.439Z,97452.66
2022-08-14T09:39:38.335Z,97438.84
2022-08-14T09:42:21.253Z,97443.72
2022-08-14T09:44:31.063Z,97454.00
2022-08-14T09:46:34.762Z,97438.31
2022-08-14T09:48:38.725Z,97440.22
2022-08-14T09:50:47.314Z,97446.97
2022-08-14T09:52:54.943Z,97437.78
2022-08-14T09:54:59.759Z,97441.78
2022-08-14T09:57:06.582Z,97435.56
2022-08-14T09:59:14.933Z,97442.56
2022-08-14T10:01:21.346Z,97446.38
2022-08-14T10:03:33.944Z,97452.91
2022-08-14T10:05:39.523Z,97440.09
2022-08-14T10:07:53.775Z,97450.91
2022-08-14T10:10:02.549Z,97441.50
2022-08-14T10:12:28.750Z,97449.22
2022-08-14T10:14:37.111Z,97431.84
2022-08-14T10:16:45.467Z,97424.75
2022-08-14T10:18:51.025Z,97427.75
2022-08-14T10:20:57.819Z,97420.94
2022-08-14T10:23:21.874Z,97407.81
2022-08-14T10:25:26.790Z,97409.84
2022-08-14T10:27:30.060Z,97401.72
2022-08-14T10:29:35.142Z,97400.22
2022-08-14T10:31:45.179Z,97396.91
2022-08-14T10:34:04.973Z,97396.13
2022-08-14T10:36:35.251Z,97393.25
2022-08-14T10:38:44.093Z,97376.81
2022-08-14T10:40:59.425Z,97379.91
2022-08-14T10:43:05.300Z,97374.75
2022-08-14T10:45:21.195Z,97375.53
2022-08-14T10:47:41.429Z,97374.47
2022-08-14T10:50:01.558Z,97359.34
2022-08-14T10:52:07.169Z,97350.28
2022-08-14T10:54:25.971Z,97339.47
2022-08-14T10:56:35.743Z,97333.22
2022-08-14T10:58:38.863Z,97341.63
2022-08-14T11:00:46.978Z,97332.78
2022-08-14T11:02:59.074Z,97335.19
2022-08-14T11:05:08.591Z,97326.47
2022-08-14T11:07:21.228Z,97331.91
2022-08-14T11:09:26.597Z,97321.63
2022-08-14T11:11:43.846Z,97316.47
2022-08-14T11:13:50.893Z,97313.53
2022-08-14T11:15:56.155Z,97311.41
2022-08-14T11:18:01.453Z,97314.38
2022-08-14T11:20:13.695Z,97301.47
2022-08-14T11:22:52.549Z,97304.19
2022-08-14T11:24:54.803Z,97312.56
2022-08-14T11:27:00.669Z,97308.16
2022-08-14T11:29:05.749Z,97313.50
2022-08-14T11:31:10.650Z,97306.63
2022-08-14T11:33:14.048Z,97298.88
2022-08-14T11:35:22.173Z,97297.38
2022-08-14T11:37:35.209Z,97307.13
2022-08-14T11:39:42.608Z,97306.53
2022-08-14T11:41:56.046Z,97297.09
2022-08-14T11:43:59.752Z,97299.59
2022-08-14T11:46:03.712Z,97307.84
2022-08-14T11:49:01.693Z,97317.63
2022-08-14T11:50:43.389Z,97312.09
2022-08-14T11:52:50.731Z,97311.53
2022-08-14T11:55:00.498Z,97306.63
2022-08-14T11:57:04.443Z,97300.94
2022-08-14T11:59:10.282Z,97304.69
2022-08-14T12:01:16.053Z,97307.13
2022-08-14T12:03:37.642Z,97299.03
2022-08-14T12:05:43.704Z,97301.72
2022-08-14T12:07:50.305Z,97288.47
2022-08-14T12:09:55.969Z,97292.50
2022-08-14T12:11:59.804Z,97291.19
2022-08-14T12:14:13.596Z,97289.28
2022-08-14T12:16:33.234Z,97279.00
2022-08-14T12:18:38.364Z,97274.16
2022-08-14T12:20:45.872Z,97272.28
2022-08-14T12:22:55.266Z,97278.53
2022-08-14T12:24:58.727Z,97267.97
2022-08-14T12:27:02.806Z,97264.44
2022-08-14T12:29:08.606Z,97250.94
2022-08-14T12:31:20.726Z,97250.94
2022-08-14T12:33:30.607Z,97245.00
2022-08-14T12:35:39.672Z,97245.28
2022-08-14T12:37:50.755Z,97248.22
2022-08-14T12:39:54.073Z,97246.91
2022-08-14T12:42:06.651Z,97246.38
2022-08-14T12:44:09.774Z,97231.22
2022-08-14T12:46:27.198Z,97228.28
2022-08-14T12:48:32.515Z,97229.91
2022-08-14T12:50:37.466Z,97239.91
2022-08-14T12:52:56.012Z,97228.22
2022-08-14T12:55:08.940Z,97221.97
2022-08-14T12:57:18.977Z,97226.59
2022-08-14T12:59:30.937Z,97218.72
2022-08-14T13:02:01.731Z,97207.59
2022-08-14T13:04:07.221Z,97210.03
2022-08-14T13:06:10.648Z,97199.25
2022-08-14T13:08:33.565Z,97206.53
2022-08-14T13:10:47.724Z,97194.66
2022-08-14T13:13:13.239Z,97197.41
2022-08-14T13:15:19.358Z,97197.97
2022-08-14T13:17:24.271Z,97192.28
2022-08-14T13:19:30.990Z,97196.06
2022-08-14T13:22:05.907Z,97195.28
2022-08-14T13:23:57.693Z,97194.78
2022-08-14T13:26:02.889Z,97188.81
2022-08-14T13:28:11.103Z,97185.00
2022-08-14T13:30:23.400Z,97184.47
2022-08-14T13:32:28.671Z,97186.63
2022-08-14T13:34:31.906Z,97187.97
2022-08-14T13:36:56.985Z,97185.25
2022-08-14T13:39:00.395Z,97177.16
2022-08-14T13:41:06.104Z,97180.94
2022-08-14T13:43:09.883Z,97167.13
2022-08-14T13:45:13.823Z,97164.47
2022-08-14T13:47:20.750Z,97155.56
2022-08-14T13:49:24.309Z,97157.47
2022-08-14T13:51:33.284Z,97157.19
2022-08-14T13:53:49.533Z,97156.66
2022-08-14T13:56:14.666Z,97155.91
2022-08-14T13:58:33.509Z,97153.72
2022-08-14T14:00:53.082Z,97157.75
2022-08-14T14:02:59.788Z,97152.88
2022-08-14T14:05:05.207Z,97148.00
2022-08-14T14:07:11.500Z,97140.69
2022-08-14T14:09:16.400Z,97144.44
2022-08-14T14:11:23.877Z,97135.00
2022-08-14T14:13:27.883Z,97129.88
2022-08-14T14:15:58.175Z,97125.53
2022-08-14T14:18:01.467Z,97124.69
2022-08-14T14:20:06.212Z,97124.41
2022-08-14T14:22:09.790Z,97117.63
2022-08-14T14:24:16.132Z,97118.75
2022-08-14T14:26:24.064Z,97113.59
2022-08-14T14:28:32.337Z,97112.50
2022-08-14T14:30:52.588Z,97109.25
2022-08-14T14:33:05.194Z,97117.38
2022-08-14T14:35:12.359Z,97114.41
2022-08-14T14:37:15.509Z,97109.25
2022-08-14T14:39:21.262Z,97108.69
2022-08-14T14:41:37.961Z,97101.38
2022-08-14T14:43:51.589Z,97109.78
2022-08-14T14:45:56.271Z,97097.91
2022-08-14T14:48:01.951Z,97100.34
2022-08-14T14:50:08.265Z,97104.16
2022-08-14T14:52:23.482Z,97097.66
2022-08-14T14:54:37.391Z,97102.78
2022-08-14T14:56:49.304Z,97101.16
2022-08-14T14:58:56.023Z,97098.72
2022-08-14T15:01:00.534Z,97096.56
2022-08-14T15:03:07.020Z,97099.53
2022-08-14T15:05:11.258Z,97093.31
2022-08-14T15:07:16.734Z,97081.94
2022-08-14T15:09:20.310Z,97085.16
2022-08-14T15:11:23.538Z,97085.47
2022-08-14T15:13:28.239Z,97085.22
2022-08-14T15:15:37.838Z,97090.88
2022-08-14T15:17:43.242Z,97076.31
2022-08-14T15:19:56.959Z,97082.25
2022-08-14T15:22:00.330Z,97075.72
2022-08-14T15:24:04.177Z,97066.28
2022-08-14T15:26:07.764Z,97069.00
2022-08-14T15:28:13.076Z,97068.69
2022-08-14T15:30:32.028Z,97067.09
2022-08-14T15:32:36.228Z,97066.53
2022-08-14T15:34:43.851Z,97068.13
2022-08-14T15:36:50.904Z,97070.00
2022-08-14T15:38:54.282Z,97072.69
2022-08-14T15:40:57.365Z,97065.41
2022-08-14T15:43:00.812Z,97070.81
2022-08-14T15:45:05.682Z,97073.53
2022-08-14T15:47:10.256Z,97067.00
2022-08-14T15:49:13.866Z,97072.69
2022-08-14T15:51:17.254Z,97069.97
2022-08-14T15:53:22.251Z,97073.78
2022-08-14T15:55:25.495Z,97074.03
2022-08-14T15:57:29.357Z,97069.19
2022-08-14T15:59:54.035Z,97072.66
2022-08-14T16:01:57.178Z,97064.25
2022-08-14T16:04:01.778Z,97063.66
2022-08-14T16:06:05.652Z,97070.44
2022-08-14T16:08:29.409Z,97060.97
2022-08-14T16:10:32.998Z,97062.28
2022-08-14T16:12:41.819Z,97062.56
2022-08-14T16:14:50.037Z,97062.00
2022-08-14T16:17:00.464Z,97059.56
2022-08-14T16:19:09.704Z,97062.00
2022-08-14T16:21:15.495Z,97056.03
2022-08-14T16:23:20.933Z,97057.63
2022-08-14T16:25:34.359Z,97054.69
2022-08-14T16:27:41.248Z,97054.69
2022-08-14T16:29:45.092Z,97057.63
2022-08-14T16:31:49.281Z,97060.84
2022-08-14T16:33:59.705Z,97053.28
2022-08-14T16:36:19.700Z,97058.16
2022-08-14T16:38:45.758Z,97050.84
2022-08-14T16:41:11.682Z,97053.25
2022-08-14T16:43:16.611Z,97052.69
2022-08-14T16:45:23.491Z,97048.38
2022-08-14T16:47:31.986Z,97042.16
2022-08-14T16:50:02.780Z,97039.97
2022-08-14T16:52:04.442Z,97036.47
2022-08-14T16:54:35.435Z,97039.97
2022-08-14T16:56:47.781Z,97035.63
2022-08-14T16:59:06.031Z,97030.50
2022-08-14T17:01:24.343Z,97037.53
2022-08-14T17:03:29.024Z,97039.69
2022-08-14T17:05:47.085Z,97032.38
2022-08-14T17:08:31.781Z,97039.91
2022-08-14T17:11:00.121Z,97038.28
2022-08-14T17:13:17.620Z,97039.59
2022-08-14T17:15:21.024Z,97033.13
2022-08-14T17:17:29.282Z,97037.41
2022-08-14T17:19:41.146Z,97038.47
2022-08-14T17:21:47.557Z,97040.06
2022-08-14T17:23:53.547Z,97039.75
2022-08-14T17:25:57.055Z,97036.75
2022-08-14T17:28:49.926Z,97032.41
2022-08-14T17:30:49.339Z,97034.84
2022-08-14T17:32:56.075Z,97024.81
2022-08-14T17:35:01.930Z,97026.97
2022-08-14T17:37:06.131Z,97027.50
2022-08-14T17:39:19.752Z,97021.81
2022-08-14T17:41:32.969Z,97018.25
2022-08-14T17:43:42.854Z,97022.00
2022-08-14T17:45:46.813Z,97023.03
2022-08-14T17:47:51.307Z,97023.00
2022-08-14T17:49:56.624Z,97025.59
2022-08-14T17:52:07.517Z,97032.00
2022-08-14T17:54:34.580Z,97030.63
2022-08-14T17:56:38.811Z,97034.59
2022-08-14T17:58:42.633Z,97026.94
2022-08-14T18:00:46.615Z,97029.00
2022-08-14T18:02:53.935Z,97038.03
2022-08-14T18:05:00.154Z,97030.38
2022-08-14T18:07:16.906Z,97024.38
2022-08-14T18:09:32.951Z,97027.53
2022-08-14T18:11:45.799Z,97021.50
2022-08-14T18:13:52.708Z,97022.81
2022-08-14T18:15:57.887Z,97028.59
2022-08-14T18:18:02.062Z,97020.19
2022-08-14T18:21:24.050Z,97025.38
2022-08-14T18:22:37.035Z,97025.28
2022-08-14T18:24:44.126Z,97027.56
2022-08-14T18:26:51.262Z,97033.38
2022-08-14T18:29:14.762Z,97029.50
2022-08-14T18:31:43.375Z,97036.59
2022-08-14T18:33:55.307Z,97031.03
2022-08-14T18:36:46.583Z,97034.13
2022-08-14T18:38:26.503Z,97033.41
2022-08-14T18:40:50.437Z,97041.81
2022-08-14T18:42:57.196Z,97039.50
2022-08-14T18:45:15.648Z,97039.31
2022-08-14T18:47:22.148Z,97035.63
2022-08-14T18:49:25.195Z,97043.25
2022-08-14T18:51:45.277Z,97044.47
2022-08-14T18:53:55.358Z,97051.41
2022-08-14T18:56:09.768Z,97058.47
2022-08-14T18:58:25.991Z,97056.03
2022-08-14T19:00:54.679Z,97061.91
2022-08-14T19:02:58.400Z,97059.94
2022-08-14T19:05:02.557Z,97056.81
2022-08-14T19:07:16.379Z,97064.16
2022-08-14T19:09:57.824Z,97068.63
2022-08-14T19:12:02.784Z,97071.59
2022-08-14T19:14:08.807Z,97080.66
2022-08-14T19:16:14.542Z,97081.31
2022-08-14T19:18:26.502Z,97082.78
2022-08-14T19:20:46.357Z,97072.97
2022-08-14T19:22:55.183Z,97075.38
2022-08-14T19:24:58.982Z,97068.50
2022-08-14T19:27:24.796Z,97070.63
2022-08-14T19:29:37.700Z,97079.69
2022-08-14T19:31:55.087Z,97079.69
2022-08-14T19:34:00.279Z,97086.22
2022-08-14T19:36:31.484Z,97085.41
2022-08-14T19:38:54.202Z,97090.38
2022-08-14T19:40:57.295Z,97083.97
2022-08-14T19:43:09.362Z,97090.66
2022-08-14T19:45:15.579Z,97085.16
2022-08-14T19:47:19.130Z,97083.13
2022-08-14T19:50:24.724Z,97089.78
2022-08-14T19:51:55.611Z,97089.53
2022-08-14T19:54:06.536Z,97084.19
2022-08-14T19:56:28.561Z,97093.25
2022-08-14T19:58:54.413Z,97097.41
2022-08-14T20:00:59.605Z,97095.03
2022-08-14T20:03:11.912Z,97093.91
2022-08-14T20:05:18.786Z,97095.66
2022-08-14T20:08:00.463Z,97108.28
2022-08-14T20:11:03.834Z,97099.50
2022-08-14T20:12:28.974Z,97105.72
2022-08-14T20:14:40.117Z,97099.66
2022-08-14T20:17:03.226Z,97097.03
2022-08-14T20:19:24.670Z,97093.19
2022-08-14T20:21:34.359Z,97098.13
2022-08-14T20:23:38.884Z,97103.88
2022-08-14T20:25:55.827Z,97103.25
2022-08-14T20:28:29.829Z,97107.13
2022-08-14T20:30:36.414Z,97106.25
2022-08-14T20:32:41.122Z,97103.94
2022-08-14T20:34:51.479Z,97107.00
2022-08-14T20:37:09.538Z,97101.66
2022-08-14T20:39:15.429Z,97113.53
2022-08-14T20:41:21.259Z,97123.41
2022-08-14T20:43:44.994Z,97116.63
2022-08-14T20:45:52.144Z,97113.00
2022-08-14T20:47:58.307Z,97117.50
2022-08-14T20:50:16.651Z,97105.81
2022-08-14T20:52:21.129Z,97112.78
2022-08-14T20:54:34.673Z,97110.13
2022-08-14T20:56:41.663Z,97102.53
2022-08-14T20:58:44.675Z,97112.03
2022-08-14T21:01:00.521Z,97115.56
2022-08-14T21:03:31.303Z,97115.00
2022-08-14T21:05:34.635Z,97111.81
2022-08-14T21:07:38.916Z,97113.47
2022-08-14T21:10:06.637Z,97116.78
2022-08-14T21:12:34.745Z,97119.28
2022-08-14T21:14:34.180Z,97126.06
2022-08-14T21:16:45.108Z,97121.38
2022-08-14T21:19:02.455Z,97121.38
2022-08-14T21:21:09.472Z,97121.38
2022-08-14T21:23:14.140Z,97118.94
2022-08-14T21:25:20.793Z,97123.69
2022-08-14T21:27:24.044Z,97120.41
2022-08-14T21:29:27.090Z,97130.91
2022-08-14T21:31:30.962Z,97128.50
2022-08-14T21:33:35.486Z,97123.41
2022-08-14T21:35:46.409Z,97137.63
2022-08-14T21:37:52.378Z,97135.38
2022-08-14T21:39:58.523Z,97137.44
2022-08-14T21:42:04.632Z,97135.00
2022-08-14T21:44:17.427Z,97143.97
2022-08-14T21:46:23.484Z,97144.16
2022-08-14T21:48:29.732Z,97150.31
2022-08-14T21:51:00.830Z,97146.84
2022-08-14T21:53:01.041Z,97144.59
2022-08-14T21:55:09.133Z,97151.75
2022-08-14T21:57:17.327Z,97145.63
2022-08-14T21:59:24.419Z,97145.22
2022-08-14T22:02:00.831Z,97148.34
2022-08-14T22:03:59.313Z,97144.88
2022-08-14T22:06:04.156Z,97150.25
2022-08-14T22:08:12.453Z,97149.25
2022-08-14T22:10:23.076Z,97151.94
2022-08-14T22:12:47.177Z,97151.50
2022-08-14T22:14:50.823Z,97152.09
2022-08-14T22:17:00.575Z,97144.50
2022-08-14T22:19:18.153Z,97151.03
2022-08-14T22:21:23.295Z,97151.66
2022-08-14T22:23:27.895Z,97151.84
2022-08-14T22:25:31.952Z,97147.97
2022-08-14T22:27:37.885Z,97145.88
2022-08-14T22:29:59.775Z,97155.53
2022-08-14T22:32:07.018Z,97153.28
2022-08-14T22:34:11.784Z,97153.06
2022-08-14T22:36:42.251Z,97154.91
2022-08-14T22:38:49.946Z,97166.00
2022-08-14T22:41:08.931Z,97156.34
2022-08-14T22:43:17.482Z,97161.88
2022-08-14T22:45:20.736Z,97168.81
2022-08-14T22:47:25.490Z,97166.56
2022-08-14T22:50:29.071Z,97159.63
2022-08-14T22:51:53.777Z,97168.66
2022-08-14T22:53:59.027Z,97172.34
2022-08-14T22:56:02.285Z,97175.38
2022-08-14T22:58:07.706Z,97166.38
2022-08-14T23:00:14.373Z,97170.28
2022-08-14T23:02:22.208Z,97174.56
2022-08-14T23:04:53.767Z,97165.50
2022-08-14T23:07:04.503Z,97159.53
2022-08-14T23:09:35.893Z,97171.88
2022-08-14T23:11:33.614Z,97167.97
2022-08-14T23:13:39.007Z,97167.16
2022-08-14T23:15:42.631Z,97169.63
2022-08-14T23:17:46.337Z,97174.75
2022-08-14T23:19:56.153Z,97169.78
2022-08-14T23:22:00.781Z,97170.00
2022-08-14T23:24:04.954Z,97172.88
2022-08-14T23:26:48.050Z,97180.66
2022-08-14T23:28:57.268Z,97175.31
2022-08-14T23:30:56.136Z,97172.81
2022-08-14T23:32:59.856Z,97168.28
2022-08-14T23:35:05.718Z,97163.38
2022-08-14T23:37:08.840Z,97163.00
2022-08-14T23:39:19.149Z,97164.66
2022-08-14T23:41:23.782Z,97163.06
2022-08-14T23:43:31.122Z,97165.50
2022-08-14T23:45:37.214Z,97160.16
2022-08-14T23:47:52.140Z,97156.25
2022-08-14T23:50:01.430Z,97163.81
2022-08-14T23:52:55.633Z,97159.91
2022-08-14T23:54:48.715Z,97159.06
2022-08-14T23:57:02.542Z,97171.59
2022-08-14T23:59:06.748Z,97164.66
